Decoded Metar for UKLU (UZHGOROD in UKRAINE) (IATA:UDJ) | Meteo·Mobile Aviation Weather
aviador You're here:

UKLU Decoded Metar

UZHGOROD in UKRAINE
Report Time2018-12-16 10:30:00
UTC Time2018-12-16 10:47:02
Flight Rules ifr IFR
WindCalm
Visibility4000 m
Phenomena:Mist
Clouds:Overcast 010 Hf
Expected CloudBase > 400 ft AGL from Temp-Dew spread
Ceiling1,000 ft
Temp00°C (ISA -14)
Dew Point-1°C (93% RH)
AAT-2.1°C
QNH1019 hPa
Density Alt-1,480 ft
Elevation384 ft
Report Wrong Elevation
Raw Report
UKLU 161030Z 00000MPS 4000 BR OVC010 M00/M01 Q1019 R10/592627
NOSIG=

Extra information for UKLU:More info

Metar Taf Metar & Taf Last 4 Metars F.Rules Stats Wind Profile Meteogram Temp Stats Airport Information Weather charts Add Link Nearby VenuesMetar ALERT Operation Metar Decoded Social comments